Time;durP1;ratioP1;P1;durP2;ratioP2;P2;SDS_P1;SDS_P2;PMS_P1;PMS_P2;Temp;Humidity;BMP_temperature;BMP_pressure;BME280_temperature;BME280_humidity;BME280_pressure;Samples;Min_cycle;Max_cycle;Signal;HPM_P1;HPM_P2
2023/07/31 00:00:48;;;;;;;;;;;;;;;16.09;100.00;101003.00;5034542;28;19931;-61
2023/07/31 00:03:13;;;;;;;;;;;;;;;16.07;100.00;101009.97;5039888;28;20397;-61
2023/07/31 00:05:39;;;;;;;;;;;;;;;16.01;100.00;101002.06;5045165;28;19917;-61
2023/07/31 00:08:04;;;;;;;;;;;;;;;15.99;100.00;101004.69;5043831;28;20043;-61
2023/07/31 00:10:29;;;;;;;;;;;;;;;16.01;100.00;101009.97;5048994;28;19963;-61
2023/07/31 00:12:54;;;;;;;;;;;;;;;16.09;100.00;101002.09;5046245;28;19995;-61
2023/07/31 00:15:19;;;;;;;;;;;;;;;16.01;100.00;101011.72;5046255;28;19946;-61
2023/07/31 00:17:44;;;;;;;;;;;;;;;16.00;100.00;101005.56;5028379;28;20291;-60
2023/07/31 00:20:10;;;;;;;;;;;;;;;15.99;100.00;101014.34;5046198;28;19913;-60
2023/07/31 00:22:36;;;;;;;;;;;;;;;16.01;100.00;101002.06;5032010;28;19916;-60
2023/07/31 00:25:01;;;;;;;;;;;;;;;15.99;100.00;101006.47;5038575;28;19971;-61
2023/07/31 00:27:26;;;;;;;;;;;;;;;15.98;100.00;101000.31;5034863;28;20307;-61
2023/07/31 00:29:51;;;;;;;;;;;;;;;15.94;100.00;101003.78;5043915;28;19917;-61
2023/07/31 00:32:17;;;;;;;;;;;;;;;15.96;100.00;101009.06;5040017;28;20469;-61
2023/07/31 00:34:42;;;;;;;;;;;;;;;16.00;100.00;101000.31;5037024;28;19913;-61
2023/07/31 00:37:07;;;;;;;;;;;;;;;15.97;100.00;100992.41;5048489;28;20359;-61
2023/07/31 00:39:33;;;;;;;;;;;;;;;15.96;100.00;101003.78;5044183;28;19921;-61
2023/07/31 00:41:59;;;;;;;;;;;;;;;15.95;100.00;101009.94;5044370;28;19913;-61
2023/07/31 00:44:24;;;;;;;;;;;;;;;15.96;100.00;101001.16;5051567;28;19901;-61
2023/07/31 00:46:49;;;;;;;;;;;;;;;15.98;100.00;101000.31;5051984;28;20390;-61
2023/07/31 00:49:15;;;;;;;;;;;;;;;15.97;100.00;100998.56;5046195;28;20374;-61
2023/07/31 00:51:40;;;;;;;;;;;;;;;16.01;100.00;100994.19;5035662;28;19948;-61
2023/07/31 00:54:06;;;;;;;;;;;;;;;15.99;100.00;100990.69;5040318;28;20355;-61
2023/07/31 00:56:32;;;;;;;;;;;;;;;15.99;100.00;100993.31;5049283;28;19977;-61
2023/07/31 00:58:57;;;;;;;;;;;;;;;15.99;100.00;100993.31;5053324;28;20359;-61
2023/07/31 01:01:22;;;;;;;;;;;;;;;15.96;100.00;100988.91;5039753;28;19912;-60
2023/07/31 01:03:51;;;;;;;;;;;;;;;15.97;100.00;100985.44;5049124;28;19913;-61
2023/07/31 01:06:34;;;;;;;;;;;;;;;15.96;100.00;100983.66;5041780;28;19944;-61
2023/07/31 01:09:07;;;;;;;;;;;;;;;15.96;100.00;100982.78;5052077;28;19996;-61
2023/07/31 01:11:38;;;;;;;;;;;;;;;15.99;100.00;100981.03;5054435;28;19912;-60
2023/07/31 01:14:03;;;;;;;;;;;;;;;15.95;100.00;100989.78;5028641;28;19952;-61
2023/07/31 01:16:29;;;;;;;;;;;;;;;16.03;100.00;100981.06;5053166;28;19971;-61
2023/07/31 01:18:54;;;;;;;;;;;;;;;15.97;100.00;100977.56;5046686;28;19913;-61
2023/07/31 01:21:39;;;;;;;;;;;;;;;15.98;100.00;100978.41;5051109;28;20459;-61
2023/07/31 01:24:04;;;;;;;;;;;;;;;15.93;100.00;100973.16;5043625;28;19956;-61
2023/07/31 01:26:33;;;;;;;;;;;;;;;16.03;100.00;100973.16;5045007;28;19963;-61
2023/07/31 01:29:03;;;;;;;;;;;;;;;15.98;100.00;100983.66;5017588;28;20515;-61
2023/07/31 01:31:29;;;;;;;;;;;;;;;15.90;100.00;100981.03;5045824;28;19919;-61
2023/07/31 01:33:56;;;;;;;;;;;;;;;15.91;100.00;100981.88;5041159;28;19913;-61
2023/07/31 01:36:21;;;;;;;;;;;;;;;15.94;100.00;100987.16;5040295;28;19923;-61
2023/07/31 01:38:46;;;;;;;;;;;;;;;15.89;100.00;100983.63;5043420;28;19999;-60
2023/07/31 01:41:12;;;;;;;;;;;;;;;15.95;100.00;100984.53;5048879;28;19943;-61
2023/07/31 01:43:37;;;;;;;;;;;;;;;15.89;100.00;100973.09;5035918;28;19948;-61
2023/07/31 01:46:02;;;;;;;;;;;;;;;15.94;100.00;100979.28;5047133;28;19917;-61
2023/07/31 01:48:27;;;;;;;;;;;;;;;15.91;100.00;100972.25;5051161;28;19986;-61
2023/07/31 01:50:53;;;;;;;;;;;;;;;15.92;100.00;100973.16;5038759;28;19935;-61
2023/07/31 01:53:18;;;;;;;;;;;;;;;15.92;100.00;100966.13;5036561;28;19913;-61
2023/07/31 01:55:43;;;;;;;;;;;;;;;15.91;100.00;100960.88;5039460;28;19913;-61
2023/07/31 01:58:09;;;;;;;;;;;;;;;15.97;100.00;100961.78;5043884;28;20362;-61
2023/07/31 02:00:34;;;;;;;;;;;;;;;15.87;100.00;100964.34;5038464;28;20294;-61
2023/07/31 02:02:59;;;;;;;;;;;;;;;15.89;100.00;100957.34;5040251;28;19961;-61
2023/07/31 02:05:25;;;;;;;;;;;;;;;15.89;100.00;100950.34;5039823;28;19913;-61
2023/07/31 02:07:50;;;;;;;;;;;;;;;15.79;100.00;100938.06;5042157;28;20371;-61
2023/07/31 02:10:15;;;;;;;;;;;;;;;15.88;100.00;100950.34;5043960;28;20275;-60
2023/07/31 02:12:40;;;;;;;;;;;;;;;15.75;100.00;100945.00;5043286;28;20368;-60
2023/07/31 02:15:06;;;;;;;;;;;;;;;15.73;100.00;100941.50;5041229;28;19967;-60
2023/07/31 02:17:31;;;;;;;;;;;;;;;15.72;100.00;100934.50;5039665;28;20363;-60
2023/07/31 02:19:56;;;;;;;;;;;;;;;15.72;100.00;100933.63;5046663;28;19913;-60
2023/07/31 02:22:21;;;;;;;;;;;;;;;15.72;100.00;100934.50;5046301;28;19924;-60
2023/07/31 02:24:46;;;;;;;;;;;;;;;15.71;100.00;100931.84;5037329;28;19919;-61
2023/07/31 02:27:12;;;;;;;;;;;;;;;15.72;100.00;100929.22;5040656;28;20325;-61
2023/07/31 02:29:37;;;;;;;;;;;;;;;15.82;100.00;100932.81;5048573;28;20406;-60
2023/07/31 02:32:02;;;;;;;;;;;;;;;15.72;100.00;100929.22;5040821;28;20568;-61
2023/07/31 02:34:27;;;;;;;;;;;;;;;15.74;100.00;100929.25;5038834;28;19919;-61
2023/07/31 02:36:53;;;;;;;;;;;;;;;15.70;100.00;100917.84;5047594;28;19920;-61
2023/07/31 02:39:18;;;;;;;;;;;;;;;15.68;100.00;100924.84;5041144;28;20394;-61
2023/07/31 02:41:43;;;;;;;;;;;;;;;15.67;100.00;100917.84;5047481;28;20401;-61
2023/07/31 02:44:10;;;;;;;;;;;;;;;15.69;100.00;100917.84;5043768;28;19913;-60
2023/07/31 02:46:35;;;;;;;;;;;;;;;15.69;100.00;100916.09;5047239;28;19943;-61
2023/07/31 02:49:00;;;;;;;;;;;;;;;15.64;100.00;100917.81;5038789;28;19920;-60
2023/07/31 02:51:25;;;;;;;;;;;;;;;15.63;100.00;100918.72;5033194;28;19913;-60
2023/07/31 02:53:50;;;;;;;;;;;;;;;15.61;100.00;100913.44;5035287;28;19967;-61
2023/07/31 02:56:16;;;;;;;;;;;;;;;15.65;100.00;100919.56;5049913;28;19913;-61
2023/07/31 02:58:41;;;;;;;;;;;;;;;15.62;100.00;100914.31;5047461;28;20047;-60
2023/07/31 03:01:06;;;;;;;;;;;;;;;15.61;100.00;100916.06;5040915;28;20395;-60
2023/07/31 03:03:31;;;;;;;;;;;;;;;15.58;100.00;100910.81;5043127;28;19912;-61
2023/07/31 03:05:56;;;;;;;;;;;;;;;15.58;100.00;100907.28;5041685;28;20350;-60
2023/07/31 03:08:22;;;;;;;;;;;;;;;15.59;100.00;100906.44;5039462;28;19939;-60
2023/07/31 03:10:47;;;;;;;;;;;;;;;15.59;100.00;100907.28;5045731;28;19916;-60
2023/07/31 03:13:12;;;;;;;;;;;;;;;15.60;100.00;100906.44;5036196;28;19913;-60
2023/07/31 03:15:37;;;;;;;;;;;;;;;15.57;100.00;100911.69;5041641;28;19920;-60
2023/07/31 03:18:02;;;;;;;;;;;;;;;15.59;100.00;100903.81;5046186;28;19916;-60
2023/07/31 03:20:28;;;;;;;;;;;;;;;15.57;100.00;100897.66;5034947;28;20394;-60
2023/07/31 03:22:53;;;;;;;;;;;;;;;15.57;100.00;100908.16;5037353;28;19962;-60
2023/07/31 03:25:18;;;;;;;;;;;;;;;15.57;100.00;100902.91;5033721;28;19916;-60
2023/07/31 03:27:43;;;;;;;;;;;;;;;15.56;100.00;100907.28;5031423;28;19943;-61
2023/07/31 03:30:08;;;;;;;;;;;;;;;15.59;100.00;100898.53;5040910;28;19921;-61
2023/07/31 03:32:34;;;;;;;;;;;;;;;15.58;100.00;100896.78;5040418;28;19920;-60
2023/07/31 03:35:00;;;;;;;;;;;;;;;15.58;100.00;100892.44;5044255;28;20418;-59
2023/07/31 03:37:25;;;;;;;;;;;;;;;15.57;100.00;100889.75;5041759;28;19916;-61
2023/07/31 03:39:50;;;;;;;;;;;;;;;15.59;100.00;100888.91;5041233;28;19963;-60
2023/07/31 03:42:15;;;;;;;;;;;;;;;15.59;100.00;100888.03;5038584;28;19913;-61
2023/07/31 03:44:40;;;;;;;;;;;;;;;15.60;100.00;100887.19;5039085;28;19992;-61
2023/07/31 03:47:05;;;;;;;;;;;;;;;15.59;100.00;100875.78;5038751;28;19940;-60
2023/07/31 03:49:31;;;;;;;;;;;;;;;15.64;100.00;100881.94;5038429;28;19916;-60
2023/07/31 03:51:56;;;;;;;;;;;;;;;15.65;100.00;100877.53;5043630;28;19909;-60
2023/07/31 03:54:21;;;;;;;;;;;;;;;15.64;100.00;100870.53;5041210;28;19912;-60
2023/07/31 03:56:46;;;;;;;;;;;;;;;15.64;100.00;100867.91;5042403;28;20290;-60
2023/07/31 03:59:11;;;;;;;;;;;;;;;15.64;100.00;100867.91;5039036;28;19955;-60
2023/07/31 04:01:37;;;;;;;;;;;;;;;15.65;100.00;100867.91;5043274;28;19952;-60
2023/07/31 04:04:02;;;;;;;;;;;;;;;15.67;100.00;100857.44;5048675;28;19988;-60
2023/07/31 04:06:27;;;;;;;;;;;;;;;15.69;100.00;100860.06;5050322;28;21483;-60
2023/07/31 04:08:52;;;;;;;;;;;;;;;15.70;100.00;100848.66;5037516;28;19960;-60
2023/07/31 04:11:17;;;;;;;;;;;;;;;15.72;100.00;100847.78;5035904;28;20329;-60
2023/07/31 04:13:43;;;;;;;;;;;;;;;15.76;100.00;100852.19;5050567;28;19912;-60
2023/07/31 04:16:08;;;;;;;;;;;;;;;15.73;100.00;100841.69;5040789;28;20363;-60
2023/07/31 04:18:33;;;;;;;;;;;;;;;15.75;100.00;100844.31;5053542;28;19936;-60
2023/07/31 04:20:58;;;;;;;;;;;;;;;15.77;100.00;100838.19;5051586;28;20363;-60
2023/07/31 04:23:27;;;;;;;;;;;;;;;15.78;100.00;100833.81;5045691;28;19917;-60
2023/07/31 04:25:52;;;;;;;;;;;;;;;15.80;100.00;100832.97;5044122;28;19917;-60
2023/07/31 04:28:17;;;;;;;;;;;;;;;15.81;100.00;100834.72;5051075;28;19924;-60
2023/07/31 04:30:42;;;;;;;;;;;;;;;15.84;100.00;100833.84;5041794;28;19913;-61
2023/07/31 04:33:07;;;;;;;;;;;;;;;15.87;100.00;100827.72;5036278;28;19913;-60
2023/07/31 04:35:33;;;;;;;;;;;;;;;15.89;100.00;100826.84;5043391;28;19970;-60
2023/07/31 04:37:58;;;;;;;;;;;;;;;15.91;100.00;100832.97;5038787;28;19958;-60
2023/07/31 04:40:23;;;;;;;;;;;;;;;15.92;100.00;100829.47;5053851;28;19908;-60
2023/07/31 04:42:48;;;;;;;;;;;;;;;15.96;100.00;100819.84;5049958;28;19920;-60
2023/07/31 04:45:14;;;;;;;;;;;;;;;15.95;100.00;100824.22;5024645;28;19915;-60
2023/07/31 04:47:39;;;;;;;;;;;;;;;15.96;100.00;100822.47;5045683;28;19916;-60
2023/07/31 04:50:04;;;;;;;;;;;;;;;15.96;100.00;100807.59;5047906;28;19920;-61
2023/07/31 04:52:29;;;;;;;;;;;;;;;15.97;100.00;100814.59;5041351;28;19978;-60
2023/07/31 04:54:55;;;;;;;;;;;;;;;15.98;100.00;100813.72;5046997;28;20337;-60
2023/07/31 04:57:20;;;;;;;;;;;;;;;15.99;100.00;100809.34;5053642;28;19987;-60
2023/07/31 04:59:45;;;;;;;;;;;;;;;15.99;100.00;100807.59;5051829;28;19917;-60
2023/07/31 05:02:12;;;;;;;;;;;;;;;16.04;100.00;100807.59;5053387;28;19909;-60
2023/07/31 05:04:37;;;;;;;;;;;;;;;16.04;100.00;100799.69;5050113;28;20473;-60
2023/07/31 05:07:02;;;;;;;;;;;;;;;16.05;100.00;100800.56;5052153;28;19920;-61
2023/07/31 05:09:27;;;;;;;;;;;;;;;16.06;100.00;100797.06;5053034;28;19912;-61
2023/07/31 05:11:53;;;;;;;;;;;;;;;16.07;100.00;100790.94;5052109;28;20003;-61
2023/07/31 05:14:18;;;;;;;;;;;;;;;16.05;100.00;100796.19;5045840;28;20286;-61
2023/07/31 05:16:43;;;;;;;;;;;;;;;16.05;100.00;100784.78;5052580;28;19913;-61
2023/07/31 05:19:08;;;;;;;;;;;;;;;16.03;100.00;100784.78;5051621;28;20393;-61
2023/07/31 05:21:33;;;;;;;;;;;;;;;16.03;100.00;100781.31;5045628;28;20389;-61
2023/07/31 05:23:59;;;;;;;;;;;;;;;16.01;100.00;100786.56;5046469;28;19909;-61
2023/07/31 05:26:24;;;;;;;;;;;;;;;16.01;100.00;100783.94;5035448;28;19916;-61
2023/07/31 05:28:49;;;;;;;;;;;;;;;16.06;100.00;100794.44;5045007;28;19940;-61
2023/07/31 05:31:14;;;;;;;;;;;;;;;16.01;100.00;100789.19;5051011;28;20473;-61
2023/07/31 05:33:40;;;;;;;;;;;;;;;16.05;100.00;100785.69;5038809;28;20347;-61
2023/07/31 05:36:05;;;;;;;;;;;;;;;16.02;100.00;100788.31;5030185;28;19913;-61
2023/07/31 05:38:30;;;;;;;;;;;;;;;15.98;100.00;100791.81;5048400;28;20230;-61
2023/07/31 05:40:55;;;;;;;;;;;;;;;15.96;100.00;100789.19;5050210;28;19999;-60
2023/07/31 05:43:21;;;;;;;;;;;;;;;15.99;100.00;100789.19;5050437;28;20279;-61
2023/07/31 05:45:46;;;;;;;;;;;;;;;15.92;100.00;100786.56;5042904;28;19909;-61
2023/07/31 05:48:11;;;;;;;;;;;;;;;15.90;100.00;100776.06;5039350;28;19925;-61
2023/07/31 05:50:39;;;;;;;;;;;;;;;15.88;100.00;100782.19;5035651;28;21708;-61
2023/07/31 05:53:04;;;;;;;;;;;;;;;15.85;100.00;100762.03;5034658;28;19916;-61
2023/07/31 05:55:29;;;;;;;;;;;;;;;15.87;100.00;100764.66;5038043;28;19932;-61
2023/07/31 05:57:54;;;;;;;;;;;;;;;15.84;100.00;100762.91;5041197;28;20510;-59
2023/07/31 06:00:20;;;;;;;;;;;;;;;15.90;100.00;100769.91;5041941;28;19917;-61
2023/07/31 06:02:45;;;;;;;;;;;;;;;15.87;100.00;100765.53;5045761;28;19920;-60
2023/07/31 06:05:11;;;;;;;;;;;;;;;15.86;100.00;100755.00;5041787;28;19917;-61
2023/07/31 06:07:36;;;;;;;;;;;;;;;15.84;100.00;100760.25;5035768;28;20272;-60
2023/07/31 06:10:04;;;;;;;;;;;;;;;15.82;100.00;100759.41;5022054;28;19917;-61
2023/07/31 06:12:30;;;;;;;;;;;;;;;15.84;100.00;100760.25;5040637;28;19975;-61
2023/07/31 06:14:56;;;;;;;;;;;;;;;15.87;100.00;100756.78;5042019;28;19913;-61
2023/07/31 06:17:21;;;;;;;;;;;;;;;15.89;100.00;100752.38;5047459;28;19909;-60
2023/07/31 06:19:46;;;;;;;;;;;;;;;15.91;100.00;100741.00;5041074;28;19913;-60
2023/07/31 06:22:11;;;;;;;;;;;;;;;15.86;100.00;100745.41;5034406;28;19982;-60
2023/07/31 06:24:37;;;;;;;;;;;;;;;15.89;100.00;100752.38;5040829;28;20330;-60
2023/07/31 06:27:03;;;;;;;;;;;;;;;15.86;100.00;100741.88;5042682;28;20284;-60
2023/07/31 06:29:29;;;;;;;;;;;;;;;15.88;100.00;100741.00;5050985;28;20015;-60
2023/07/31 06:31:54;;;;;;;;;;;;;;;15.90;100.00;100736.66;5051109;28;20323;-60
2023/07/31 06:34:20;;;;;;;;;;;;;;;15.91;100.00;100743.63;5040077;28;19921;-60
2023/07/31 06:36:45;;;;;;;;;;;;;;;15.93;100.00;100738.38;5037721;28;20011;-60
2023/07/31 06:39:10;;;;;;;;;;;;;;;15.95;100.00;100734.00;5032718;28;20360;-60
2023/07/31 06:41:36;;;;;;;;;;;;;;;15.95;100.00;100742.75;5041106;28;19916;-60
2023/07/31 06:44:01;;;;;;;;;;;;;;;15.97;100.00;100727.00;5044022;28;19948;-60
2023/07/31 06:46:26;;;;;;;;;;;;;;;15.97;100.00;100729.63;5041962;28;19958;-60
2023/07/31 06:48:51;;;;;;;;;;;;;;;15.97;100.00;100732.25;5049190;28;19919;-60
2023/07/31 06:51:16;;;;;;;;;;;;;;;15.97;100.00;100730.50;5040608;28;19913;-60
2023/07/31 06:53:44;;;;;;;;;;;;;;;16.01;100.00;100720.84;5044183;28;19916;-60
2023/07/31 06:56:10;;;;;;;;;;;;;;;15.99;100.00;100726.13;5042179;28;19909;-60
2023/07/31 06:58:35;;;;;;;;;;;;;;;15.99;100.00;100727.88;5047305;28;19999;-60
2023/07/31 07:01:00;;;;;;;;;;;;;;;15.99;100.00;100720.00;5042042;28;21462;-60
2023/07/31 07:03:25;;;;;;;;;;;;;;;15.98;100.00;100720.88;5033227;28;19908;-60
2023/07/31 07:05:50;;;;;;;;;;;;;;;16.01;100.00;100720.84;5045190;28;20433;-60
2023/07/31 07:08:17;;;;;;;;;;;;;;;16.06;100.00;100720.84;5044918;28;19919;-60
2023/07/31 07:10:42;;;;;;;;;;;;;;;16.04;100.00;100712.09;5033293;28;19924;-59
2023/07/31 07:13:07;;;;;;;;;;;;;;;16.04;100.00;100715.59;5056498;28;19912;-60
2023/07/31 07:15:33;;;;;;;;;;;;;;;16.05;100.00;100709.47;5031686;28;19919;-60
2023/07/31 07:17:58;;;;;;;;;;;;;;;16.04;100.00;100705.06;5034845;28;19916;-60
2023/07/31 07:20:24;;;;;;;;;;;;;;;16.06;100.00;100708.59;5019756;28;19916;-60
2023/07/31 07:22:49;;;;;;;;;;;;;;;16.06;100.00;100708.59;5041767;28;19916;-60
2023/07/31 07:25:14;;;;;;;;;;;;;;;16.08;100.00;100711.22;5045230;28;19955;-60
2023/07/31 07:27:39;;;;;;;;;;;;;;;16.08;100.00;100703.34;5033639;28;19920;-60
2023/07/31 07:30:05;;;;;;;;;;;;;;;16.08;100.00;100692.81;5045497;28;19971;-61
2023/07/31 07:32:30;;;;;;;;;;;;;;;16.08;100.00;100698.94;5032132;28;19971;-60
2023/07/31 07:34:56;;;;;;;;;;;;;;;16.08;100.00;100698.94;5042999;28;19912;-60
2023/07/31 07:37:21;;;;;;;;;;;;;;;16.16;100.00;100712.97;5045667;28;20385;-60
2023/07/31 07:39:46;;;;;;;;;;;;;;;16.20;100.00;100715.59;5020844;28;19963;-60
2023/07/31 07:42:12;;;;;;;;;;;;;;;16.12;100.00;100708.59;5038318;28;19909;-60
2023/07/31 07:44:37;;;;;;;;;;;;;;;16.13;100.00;100702.47;5046627;28;19931;-61
2023/07/31 07:47:02;;;;;;;;;;;;;;;16.15;100.00;100711.19;5045879;28;19958;-60
2023/07/31 07:49:27;;;;;;;;;;;;;;;16.16;100.00;100710.34;5044417;28;19913;-60
2023/07/31 07:51:53;;;;;;;;;;;;;;;16.15;100.00;100705.94;5040503;28;20371;-61
2023/07/31 07:54:19;;;;;;;;;;;;;;;16.17;100.00;100696.28;5041029;28;19913;-61
2023/07/31 07:56:44;;;;;;;;;;;;;;;16.20;100.00;100702.44;5046747;28;19995;-61
2023/07/31 07:59:09;;;;;;;;;;;;;;;16.24;100.00;100696.31;5041942;28;20331;-60
2023/07/31 08:01:34;;;;;;;;;;;;;;;16.25;100.00;100704.19;5037937;28;19962;-61
2023/07/31 08:04:00;;;;;;;;;;;;;;;16.20;100.00;100710.31;5047022;28;19913;-60
2023/07/31 08:06:25;;;;;;;;;;;;;;;16.24;100.00;100697.16;5045479;28;20165;-60
2023/07/31 08:08:50;;;;;;;;;;;;;;;16.21;100.00;100698.94;5038463;28;20256;-60
2023/07/31 08:11:15;;;;;;;;;;;;;;;16.26;100.00;100707.69;5036199;28;19919;-60
2023/07/31 08:13:41;;;;;;;;;;;;;;;16.25;100.00;100695.41;5036397;28;19913;-60
2023/07/31 08:16:06;;;;;;;;;;;;;;;16.26;100.00;100698.03;5040261;28;20363;-60
2023/07/31 08:18:32;;;;;;;;;;;;;;;16.26;100.00;100692.75;5037554;28;19919;-60
2023/07/31 08:20:57;;;;;;;;;;;;;;;16.28;100.00;100708.53;5042032;28;19974;-60
2023/07/31 08:23:22;;;;;;;;;;;;;;;16.26;100.00;100690.13;5039665;28;19927;-60
2023/07/31 08:25:49;;;;;;;;;;;;;;;16.44;100.00;100688.38;5040533;28;19919;-60
2023/07/31 08:28:14;;;;;;;;;;;;;;;16.37;100.00;100697.16;5033018;28;19947;-60
2023/07/31 08:30:40;;;;;;;;;;;;;;;16.32;100.00;100702.41;5043912;28;19916;-60
2023/07/31 08:33:05;;;;;;;;;;;;;;;16.25;100.00;100698.94;5044386;28;20399;-60
2023/07/31 08:35:30;;;;;;;;;;;;;;;16.22;100.00;100703.28;5018408;28;20637;-60
2023/07/31 08:37:55;;;;;;;;;;;;;;;16.25;100.00;100693.66;5030717;28;19966;-60
2023/07/31 08:40:24;;;;;;;;;;;;;;;16.26;100.00;100689.28;5036273;28;19917;-61
2023/07/31 08:42:51;;;;;;;;;;;;;;;16.31;100.00;100700.66;5040607;28;20444;-60
2023/07/31 08:45:18;;;;;;;;;;;;;;;16.27;100.00;100699.78;5041859;28;19997;-61
2023/07/31 08:47:48;;;;;;;;;;;;;;;16.26;100.00;100689.28;5016854;28;19921;-61
2023/07/31 08:50:15;;;;;;;;;;;;;;;16.28;100.00;100696.28;5044935;28;20610;-60
2023/07/31 08:52:41;;;;;;;;;;;;;;;16.29;100.00;100697.16;5042227;28;20291;-60
2023/07/31 08:55:06;;;;;;;;;;;;;;;16.29;100.00;100700.69;5048826;28;19908;-60
2023/07/31 08:57:33;;;;;;;;;;;;;;;16.29;100.00;100691.88;5048485;28;20405;-61
2023/07/31 08:59:59;;;;;;;;;;;;;;;16.31;100.00;100690.16;5069133;28;20477;-59
2023/07/31 09:04:59;;;;;;;;;;;;;;;16.33;100.00;100689.25;5912737;22;19909;-58
2023/07/31 09:07:25;;;;;;;;;;;;;;;16.34;100.00;100688.38;5048975;28;19923;-58
2023/07/31 09:09:50;;;;;;;;;;;;;;;16.40;100.00;100697.13;5028275;28;19916;-58
2023/07/31 09:12:16;;;;;;;;;;;;;;;16.38;100.00;100686.63;5046063;28;19920;-58
2023/07/31 09:14:41;;;;;;;;;;;;;;;16.37;100.00;100684.00;5049951;28;20009;-58
2023/07/31 09:17:07;;;;;;;;;;;;;;;16.39;100.00;100683.09;5048274;28;20182;-59
2023/07/31 09:19:33;;;;;;;;;;;;;;;16.42;100.00;100679.59;5037247;28;19909;-59
2023/07/31 09:21:59;;;;;;;;;;;;;;;16.44;100.00;100672.59;5039850;28;19967;-58
2023/07/31 09:24:25;;;;;;;;;;;;;;;16.47;100.00;100683.94;5042308;28;19909;-58
2023/07/31 09:26:53;;;;;;;;;;;;;;;16.52;100.00;100684.81;5039696;28;19945;-59
2023/07/31 09:29:19;;;;;;;;;;;;;;;16.54;100.00;100678.66;5042910;28;19952;-58
2023/07/31 09:31:44;;;;;;;;;;;;;;;16.54;100.00;100684.81;5042347;28;19913;-58
2023/07/31 09:34:11;;;;;;;;;;;;;;;16.60;100.00;100674.25;5048986;28;20011;-58
2023/07/31 09:36:47;;;;;;;;;;;;;;;16.63;100.00;100676.00;5050648;28;19999;-58
2023/07/31 09:39:16;;;;;;;;;;;;;;;16.65;100.00;100674.25;5041363;28;19909;-59
2023/07/31 09:41:54;;;;;;;;;;;;;;;16.70;100.00;100672.47;5044805;28;20359;-59
2023/07/31 09:44:19;;;;;;;;;;;;;;;16.78;100.00;100665.41;5045360;28;19913;-58
2023/07/31 09:46:45;;;;;;;;;;;;;;;16.78;100.00;100664.53;5048357;28;20359;-58
2023/07/31 09:49:11;;;;;;;;;;;;;;;16.78;100.00;100661.91;5035936;28;19967;-59
2023/07/31 09:51:40;;;;;;;;;;;;;;;16.80;100.00;100665.41;5041288;28;19916;-66
2023/07/31 09:54:12;;;;;;;;;;;;;;;16.82;100.00;100661.00;5052398;28;20370;-58
2023/07/31 09:56:42;;;;;;;;;;;;;;;16.88;100.00;100662.78;5050108;28;19951;-58
2023/07/31 09:59:07;;;;;;;;;;;;;;;16.93;100.00;100655.72;5051972;28;19923;-58
2023/07/31 10:01:33;;;;;;;;;;;;;;;16.94;100.00;100655.69;5052362;28;19916;-58
2023/07/31 10:03:58;;;;;;;;;;;;;;;17.00;100.00;100660.06;5050382;28;19908;-58
2023/07/31 10:06:24;;;;;;;;;;;;;;;17.05;100.00;100660.91;5041638;28;20318;-59
2023/07/31 10:08:51;;;;;;;;;;;;;;;17.03;100.00;100657.41;5052039;28;19962;-59
2023/07/31 10:11:16;;;;;;;;;;;;;;;17.06;100.00;100643.34;5051945;28;20007;-59
2023/07/31 10:13:42;;;;;;;;;;;;;;;17.09;100.00;100649.50;5051440;28;20388;-59
2023/07/31 10:16:07;;;;;;;;;;;;;;;17.16;100.00;100652.94;5032302;28;19909;-59
2023/07/31 10:18:33;;;;;;;;;;;;;;;17.22;100.00;100642.38;5032256;28;20050;-59
2023/07/31 10:20:59;;;;;;;;;;;;;;;17.27;100.00;100643.22;5040143;28;20375;-59
2023/07/31 10:23:25;;;;;;;;;;;;;;;17.36;100.00;100644.91;5037222;28;19924;-59
2023/07/31 10:25:52;;;;;;;;;;;;;;;17.40;100.00;100638.72;5034684;28;19924;-59
2023/07/31 10:28:18;;;;;;;;;;;;;;;17.44;100.00;100642.19;5039896;28;19912;-59
2023/07/31 10:30:44;;;;;;;;;;;;;;;17.45;100.00;100643.94;5034392;28;20046;-59
2023/07/31 10:33:09;;;;;;;;;;;;;;;17.51;100.00;100649.16;5375130;23;19932;-57
2023/07/31 10:35:34;;;;;;;;;;;;;;;17.58;100.00;100650.00;5001629;28;19913;-56
2023/07/31 10:38:10;;;;;;;;;;;;;;;17.60;100.00;100638.56;4998514;28;19913;-56
2023/07/31 10:40:36;;;;;;;;;;;;;;;17.60;100.00;100658.75;4992092;28;19921;-57
2023/07/31 10:43:01;;;;;;;;;;;;;;;17.62;100.00;100651.72;4997193;28;19917;-56
2023/07/31 10:45:33;;;;;;;;;;;;;;;17.62;100.00;100655.22;4982241;28;19961;-56
2023/07/31 10:48:01;;;;;;;;;;;;;;;17.64;100.00;100660.47;4995380;28;19925;-56
2023/07/31 10:50:28;;;;;;;;;;;;;;;17.63;100.00;100661.38;4989914;28;20009;-56
2023/07/31 10:52:57;;;;;;;;;;;;;;;17.66;100.00;100664.00;4991262;28;20388;-56
2023/07/31 10:55:41;;;;;;;;;;;;;;;17.68;100.00;100651.66;4990985;28;20450;-56
2023/07/31 10:58:07;;;;;;;;;;;;;;;17.72;100.00;100648.13;4992885;28;20004;-56
2023/07/31 11:00:32;;;;;;;;;;;;;;;17.80;100.00;100648.03;4995563;28;20363;-56
2023/07/31 11:03:02;;;;;;;;;;;;;;;17.79;100.00;100646.31;4988572;28;19924;-56
2023/07/31 11:05:46;;;;;;;;;;;;;;;17.75;100.00;100636.69;4981808;28;19960;-58
2023/07/31 11:08:16;;;;;;;;;;;;;;;17.74;100.00;100635.78;4988710;28;19921;-59
2023/07/31 11:10:42;;;;;;;;;;;;;;;17.82;100.00;100639.22;4986406;28;19914;-59
2023/07/31 11:13:07;;;;;;;;;;;;;;;17.84;100.00;100642.75;4990519;28;20069;-59
2023/07/31 11:15:32;;;;;;;;;;;;;;;17.92;100.00;100641.84;4984956;28;19921;-58
2023/07/31 11:18:03;;;;;;;;;;;;;;;17.97;100.00;100622.41;4990904;28;19925;-58
2023/07/31 11:20:29;;;;;;;;;;;;;;;18.03;100.00;100629.38;4993559;28;19913;-58
2023/07/31 11:22:54;;;;;;;;;;;;;;;18.05;100.00;100638.16;4991006;28;19910;-58
2023/07/31 11:25:20;;;;;;;;;;;;;;;18.10;100.00;100623.16;4990414;28;20387;-59
2023/07/31 11:27:45;;;;;;;;;;;;;;;18.11;100.00;100638.09;4989823;28;20019;-59
2023/07/31 11:30:10;;;;;;;;;;;;;;;18.20;100.00;100624.78;4991476;28;20481;-58
2023/07/31 11:32:36;;;;;;;;;;;;;;;18.12;100.00;100634.59;4993533;28;19948;-58
2023/07/31 11:35:02;;;;;;;;;;;;;;;18.14;100.00;100624.00;4981499;28;19972;-58
2023/07/31 11:37:43;;;;;;;;;;;;;;;18.19;100.00;100619.53;4987860;28;19964;-58
2023/07/31 11:40:08;;;;;;;;;;;;;;;18.29;100.00;100618.53;4984032;28;19914;-59
2023/07/31 11:42:34;;;;;;;;;;;;;;;18.39;100.00;100619.31;4989480;28;20439;-58
2023/07/31 11:45:01;;;;;;;;;;;;;;;18.50;100.00;100617.41;4973199;28;19916;-58
2023/07/31 11:47:26;;;;;;;;;;;;;;;18.52;100.00;100614.75;4981866;28;19918;-59
2023/07/31 11:49:52;;;;;;;;;;;;;;;18.53;100.00;100617.38;4979752;28;19998;-58
2023/07/31 11:52:19;;;;;;;;;;;;;;;18.52;100.00;100620.88;4982220;28;19924;-58
2023/07/31 11:54:45;;;;;;;;;;;;;;;18.51;100.00;100619.16;4984748;28;19949;-58
2023/07/31 11:57:11;;;;;;;;;;;;;;;18.54;100.00;100610.34;4984246;28;19953;-58
2023/07/31 11:59:37;;;;;;;;;;;;;;;18.50;100.00;100612.13;4985077;28;19914;-58
2023/07/31 12:02:03;;;;;;;;;;;;;;;18.58;100.00;100612.03;4984446;28;19910;-58
2023/07/31 12:04:29;;;;;;;;;;;;;;;18.51;100.00;100608.63;4976159;28;20063;-58
2023/07/31 12:06:54;;;;;;;;;;;;;;;18.52;100.00;100615.63;4971456;28;19918;-59
2023/07/31 12:09:20;;;;;;;;;;;;;;;18.48;100.00;100618.31;4978852;28;19960;-58
2023/07/31 12:11:48;;;;;;;;;;;;;;;18.42;100.00;100619.25;4988547;28;19924;-59
2023/07/31 12:14:21;;;;;;;;;;;;;;;18.36;100.00;100614.94;4984217;28;19956;-59
2023/07/31 12:16:46;;;;;;;;;;;;;;;18.32;100.00;100621.16;4982946;28;20307;-58
2023/07/31 12:19:11;;;;;;;;;;;;;;;18.28;100.00;100621.19;4976251;28;19985;-58
2023/07/31 12:21:37;;;;;;;;;;;;;;;18.27;100.00;100609.78;4973389;28;19920;-58
2023/07/31 12:24:03;;;;;;;;;;;;;;;18.34;100.00;100610.59;4976539;28;20296;-59